createdAt,value
2019-06-10T00:00:41.962Z,26.40
2019-06-10T00:03:12.037Z,21.25
2019-06-10T00:05:41.621Z,19.48
2019-06-10T00:08:11.890Z,22.58
2019-06-10T00:10:42.113Z,19.75
2019-06-10T00:13:12.274Z,18.10
2019-06-10T00:15:41.448Z,20.85
2019-06-10T00:18:40.833Z,19.55
2019-06-10T00:20:41.301Z,19.73
2019-06-10T00:23:12.215Z,26.05
2019-06-10T00:25:41.299Z,23.57
2019-06-10T00:28:12.021Z,24.47
2019-06-10T00:30:41.492Z,23.47
2019-06-10T00:33:12.484Z,19.27
2019-06-10T00:35:41.618Z,21.57
2019-06-10T00:38:13.726Z,21.10
2019-06-10T00:40:41.896Z,30.15
2019-06-10T00:43:13.587Z,25.97
2019-06-10T00:45:42.696Z,21.95
2019-06-10T00:48:24.730Z,22.65
2019-06-10T00:50:42.015Z,21.97
2019-06-10T00:53:13.967Z,27.67
2019-06-10T00:55:41.827Z,26.17
2019-06-10T00:58:13.696Z,27.35
2019-06-10T01:00:41.988Z,25.48
2019-06-10T01:03:13.623Z,26.07
2019-06-10T01:05:42.211Z,25.55
2019-06-10T01:08:15.054Z,29.00
2019-06-10T01:10:43.946Z,26.15
2019-06-10T01:13:15.095Z,22.73
2019-06-10T01:15:43.663Z,29.52
2019-06-10T01:20:43.295Z,22.05
2019-06-10T01:23:15.511Z,24.70
2019-06-10T01:25:42.751Z,19.95
2019-06-10T01:28:16.722Z,20.50
2019-06-10T01:30:42.555Z,17.85
2019-06-10T01:33:12.837Z,20.32
2019-06-10T01:35:41.743Z,20.17
2019-06-10T01:38:13.538Z,25.17
2019-06-10T01:40:42.157Z,26.95
2019-06-10T01:43:13.350Z,22.93
2019-06-10T01:45:42.069Z,19.32
2019-06-10T01:48:13.072Z,24.12
2019-06-10T01:50:41.707Z,23.35
2019-06-10T01:53:13.763Z,23.73
2019-06-10T01:55:41.801Z,27.65
2019-06-10T01:58:14.707Z,29.10
2019-06-10T02:00:45.779Z,29.07
2019-06-10T02:03:17.230Z,23.98
2019-06-10T02:05:45.435Z,22.42
2019-06-10T02:08:15.886Z,22.90
2019-06-10T02:10:44.440Z,20.85
2019-06-10T02:13:23.700Z,20.82
2019-06-10T02:15:52.175Z,23.60
2019-06-10T02:18:22.452Z,26.97
2019-06-10T02:20:51.411Z,21.40
2019-06-10T02:23:23.183Z,20.10
2019-06-10T02:25:51.314Z,19.82
2019-06-10T02:28:22.044Z,20.92
2019-06-10T02:30:55.388Z,21.07
2019-06-10T02:33:30.518Z,21.60
2019-06-10T02:35:54.182Z,26.30
2019-06-10T02:38:33.134Z,19.82
2019-06-10T02:40:53.999Z,19.02
2019-06-10T02:43:32.055Z,17.85
2019-06-10T02:45:55.703Z,17.32
2019-06-10T02:48:30.126Z,18.80
2019-06-10T02:51:03.477Z,18.30
2019-06-10T02:53:36.127Z,19.27
2019-06-10T02:56:04.213Z,20.05
2019-06-10T02:58:38.420Z,18.75
2019-06-10T03:01:04.379Z,19.12
2019-06-10T03:03:43.674Z,16.25
2019-06-10T03:06:08.708Z,22.98
2019-06-10T03:08:37.013Z,25.95
2019-06-10T03:11:05.816Z,19.70
2019-06-10T03:13:35.727Z,21.95
2019-06-10T03:16:08.780Z,22.05
2019-06-10T03:18:37.612Z,23.10
2019-06-10T03:21:06.078Z,24.07
2019-06-10T03:23:35.656Z,19.42
2019-06-10T03:26:04.554Z,25.32
2019-06-10T03:28:33.503Z,21.42
2019-06-10T03:31:05.688Z,21.75
2019-06-10T03:33:41.092Z,21.50
2019-06-10T03:36:03.254Z,20.15
2019-06-10T03:38:32.678Z,22.58
2019-06-10T03:41:03.250Z,21.85
2019-06-10T03:43:33.030Z,23.32
2019-06-10T03:46:02.993Z,21.55
2019-06-10T03:48:32.814Z,24.50
2019-06-10T03:51:03.435Z,25.10
2019-06-10T03:53:33.844Z,25.35
2019-06-10T03:56:03.015Z,28.92
2019-06-10T03:58:32.825Z,28.60
2019-06-10T04:01:03.040Z,26.80
2019-06-10T04:03:33.937Z,22.15
2019-06-10T04:06:02.801Z,21.00
2019-06-10T04:08:32.846Z,20.52
2019-06-10T04:11:02.942Z,17.37
2019-06-10T04:13:33.832Z,18.45
2019-06-10T04:16:02.631Z,21.77
2019-06-10T04:18:32.857Z,21.42
2019-06-10T04:21:02.478Z,27.10
2019-06-10T04:23:33.531Z,20.50
2019-06-10T04:26:02.553Z,20.10
2019-06-10T04:28:33.635Z,20.02
2019-06-10T04:31:02.512Z,18.32
2019-06-10T04:33:33.228Z,17.60
2019-06-10T04:36:02.939Z,17.05
2019-06-10T04:38:32.713Z,16.12
2019-06-10T04:41:03.325Z,21.00
2019-06-10T04:43:35.361Z,15.15
2019-06-10T04:46:04.083Z,16.20
2019-06-10T04:48:32.964Z,19.05
2019-06-10T04:51:02.775Z,14.80
2019-06-10T04:53:33.031Z,14.58
2019-06-10T04:56:03.055Z,13.40
2019-06-10T04:58:33.383Z,17.92
2019-06-10T05:01:03.032Z,12.95
2019-06-10T05:03:33.048Z,13.48
2019-06-10T05:06:03.347Z,12.00
2019-06-10T05:08:33.806Z,12.88
2019-06-10T05:11:03.686Z,14.07
2019-06-10T05:13:33.903Z,13.88
2019-06-10T05:16:03.682Z,17.02
2019-06-10T05:18:33.237Z,18.65
2019-06-10T05:21:02.907Z,12.90
2019-06-10T05:23:32.910Z,15.75
2019-06-10T05:26:02.711Z,11.73
2019-06-10T05:28:34.171Z,13.70
2019-06-10T05:31:02.930Z,11.08
2019-06-10T05:33:33.506Z,12.45
2019-06-10T05:36:02.661Z,11.90
2019-06-10T05:38:35.208Z,9.68
2019-06-10T05:41:02.860Z,9.70
2019-06-10T05:43:34.318Z,14.20
2019-06-10T05:46:03.196Z,14.13
2019-06-10T05:48:33.648Z,10.05
2019-06-10T05:51:06.413Z,11.97
2019-06-10T05:53:35.416Z,14.35
2019-06-10T05:56:04.228Z,11.68
2019-06-10T05:58:35.861Z,11.53
2019-06-10T06:01:03.559Z,14.50
2019-06-10T06:03:35.099Z,11.05
2019-06-10T06:06:03.392Z,10.13
2019-06-10T06:08:34.025Z,12.18
2019-06-10T06:11:03.246Z,11.15
2019-06-10T06:13:34.090Z,15.53
2019-06-10T06:16:03.256Z,17.02
2019-06-10T06:18:34.658Z,17.60
2019-06-10T06:21:20.035Z,12.20
2019-06-10T06:23:36.621Z,13.72
2019-06-10T06:26:04.186Z,14.30
2019-06-10T06:28:34.583Z,11.78
2019-06-10T06:31:03.576Z,15.88
2019-06-10T06:33:35.952Z,15.35
2019-06-10T06:36:03.683Z,13.08
2019-06-10T06:38:34.932Z,13.25
2019-06-10T06:41:03.363Z,14.75
2019-06-10T06:43:37.034Z,12.85
2019-06-10T06:46:02.802Z,18.15
2019-06-10T06:48:36.656Z,14.10
2019-06-10T06:51:08.147Z,15.13
2019-06-10T06:53:44.421Z,15.25
2019-06-10T06:56:04.004Z,11.60
2019-06-10T06:58:35.245Z,14.95
2019-06-10T07:01:10.238Z,16.35
2019-06-10T07:03:38.109Z,14.65
2019-06-10T07:06:05.480Z,13.18
2019-06-10T07:08:36.153Z,14.30
2019-06-10T07:11:04.275Z,14.47
2019-06-10T07:13:37.070Z,16.20
2019-06-10T07:16:05.000Z,13.60
2019-06-10T07:18:37.549Z,14.85
2019-06-10T07:21:03.787Z,14.55
2019-06-10T07:23:35.032Z,11.70
2019-06-10T07:26:03.140Z,12.90
2019-06-10T07:28:33.928Z,12.93
2019-06-10T07:31:03.308Z,11.57
2019-06-10T07:33:34.827Z,12.98
2019-06-10T07:36:03.177Z,11.97
2019-06-10T07:38:33.831Z,16.35
2019-06-10T07:41:02.889Z,12.90
2019-06-10T07:43:34.004Z,11.93
2019-06-10T07:46:03.409Z,9.60
2019-06-10T07:48:34.794Z,14.40
2019-06-10T07:51:03.356Z,16.30
2019-06-10T07:53:34.907Z,11.93
2019-06-10T07:56:04.257Z,15.98
2019-06-10T07:58:35.204Z,12.68
2019-06-10T08:01:03.624Z,13.20
2019-06-10T08:03:34.911Z,12.80
2019-06-10T08:06:03.497Z,10.23
2019-06-10T08:08:33.048Z,13.05
2019-06-10T08:11:03.494Z,11.43
2019-06-10T08:13:32.610Z,8.73
2019-06-10T08:16:02.754Z,13.95
2019-06-10T08:18:38.238Z,10.15
2019-06-10T08:21:03.377Z,12.78
2019-06-10T08:23:32.945Z,11.18
2019-06-10T08:26:03.415Z,8.68
2019-06-10T08:28:33.251Z,7.53
2019-06-10T08:31:03.602Z,11.88
2019-06-10T08:33:33.073Z,6.80
2019-06-10T08:36:03.981Z,8.98
2019-06-10T08:38:33.092Z,10.00
2019-06-10T08:41:03.157Z,10.15
2019-06-10T08:43:33.221Z,8.03
2019-06-10T08:46:02.566Z,9.58
2019-06-10T08:48:33.000Z,7.78
2019-06-10T08:51:03.922Z,10.53
2019-06-10T08:53:33.026Z,10.20
2019-06-10T08:56:02.871Z,11.68
2019-06-10T08:58:33.096Z,9.50
2019-06-10T09:01:02.487Z,10.30
2019-06-10T09:03:32.430Z,7.30
2019-06-10T09:06:02.800Z,9.70
2019-06-10T09:08:32.724Z,8.83
2019-06-10T09:11:02.470Z,8.85
2019-06-10T09:13:33.694Z,7.25
2019-06-10T09:16:12.820Z,8.98
2019-06-10T09:18:33.673Z,7.92
2019-06-10T09:21:05.162Z,8.03
2019-06-10T09:23:34.081Z,10.05
2019-06-10T09:26:03.515Z,7.80
2019-06-10T09:28:32.973Z,10.20
2019-06-10T09:31:04.052Z,6.67
2019-06-10T09:33:33.157Z,6.72
2019-06-10T09:36:03.247Z,6.80
2019-06-10T09:38:33.649Z,7.97
2019-06-10T09:41:06.570Z,10.98
2019-06-10T09:43:35.524Z,10.38
2019-06-10T09:46:04.113Z,5.60
2019-06-10T09:48:33.785Z,4.90
2019-06-10T09:51:02.811Z,6.85
2019-06-10T09:53:41.302Z,9.73
2019-06-10T09:56:04.245Z,9.13
2019-06-10T09:58:33.009Z,10.50
2019-06-10T10:01:03.274Z,15.20
2019-06-10T10:03:33.105Z,13.83
2019-06-10T10:06:13.770Z,8.25
2019-06-10T10:08:33.991Z,8.23
2019-06-10T10:11:03.554Z,8.13
2019-06-10T10:13:35.392Z,11.43
2019-06-10T10:16:02.885Z,9.08
2019-06-10T10:18:33.438Z,9.25
2019-06-10T10:21:05.214Z,8.83
2019-06-10T10:23:50.104Z,7.83
2019-06-10T10:26:04.564Z,6.92
2019-06-10T10:28:33.714Z,9.88
2019-06-10T10:31:04.466Z,7.62
2019-06-10T10:33:33.406Z,8.95
2019-06-10T10:36:02.806Z,6.50
2019-06-10T10:38:34.490Z,6.80
2019-06-10T10:41:04.567Z,8.20
2019-06-10T10:43:36.580Z,6.00
2019-06-10T10:46:05.563Z,9.08
2019-06-10T10:48:33.569Z,5.97
2019-06-10T10:51:04.275Z,8.48
2019-06-10T10:53:33.055Z,8.55
2019-06-10T10:56:02.557Z,8.65
2019-06-10T10:58:33.023Z,8.95
2019-06-10T11:01:04.093Z,7.10
2019-06-10T11:03:33.543Z,8.73
2019-06-10T11:06:02.108Z,10.18
2019-06-10T11:08:33.172Z,5.60
2019-06-10T11:11:05.274Z,6.95
2019-06-10T11:13:36.170Z,7.65
2019-06-10T11:16:05.157Z,10.95
2019-06-10T11:18:34.181Z,5.22
2019-06-10T11:21:05.054Z,9.08
2019-06-10T11:23:34.717Z,10.25
2019-06-10T11:26:03.436Z,5.97
2019-06-10T11:28:32.263Z,8.30
2019-06-10T11:31:03.297Z,6.30
2019-06-10T11:33:32.851Z,8.55
2019-06-10T11:36:02.882Z,5.75
2019-06-10T11:38:32.853Z,8.75
2019-06-10T11:41:03.198Z,9.78
2019-06-10T11:43:33.249Z,7.85
2019-06-10T11:46:06.995Z,6.47
2019-06-10T11:48:32.949Z,8.68
2019-06-10T11:51:04.681Z,7.37
2019-06-10T11:53:34.390Z,5.28
2019-06-10T11:56:02.748Z,5.78
2019-06-10T11:58:33.352Z,8.10
2019-06-10T12:01:03.751Z,8.50
2019-06-10T12:03:32.139Z,6.85
2019-06-10T12:06:02.040Z,10.82
2019-06-10T12:08:32.895Z,7.10
2019-06-10T12:11:02.513Z,6.03
2019-06-10T12:13:34.285Z,8.68
2019-06-10T12:18:33.273Z,7.60
2019-06-10T12:21:03.991Z,4.95
2019-06-10T12:23:33.698Z,9.08
2019-06-10T12:26:04.819Z,7.03
2019-06-10T12:28:32.841Z,7.67
2019-06-10T12:31:06.407Z,5.85
2019-06-10T12:33:33.700Z,7.47
2019-06-10T12:36:06.159Z,5.90
2019-06-10T12:38:32.797Z,6.60
2019-06-10T12:41:09.653Z,4.83
2019-06-10T12:43:33.967Z,8.28
2019-06-10T12:46:03.360Z,9.38
2019-06-10T12:48:34.182Z,5.45
2019-06-10T12:51:08.018Z,8.78
2019-06-10T12:53:32.774Z,8.28
2019-06-10T12:56:07.295Z,6.22
2019-06-10T12:58:33.363Z,5.58
2019-06-10T13:01:05.409Z,8.63
2019-06-10T13:03:33.542Z,7.62
2019-06-10T13:06:07.272Z,8.80
2019-06-10T13:08:35.335Z,9.85
2019-06-10T13:11:05.425Z,9.88
2019-06-10T13:13:33.899Z,7.42
2019-06-10T13:16:06.735Z,8.48
2019-06-10T13:18:32.560Z,12.07
2019-06-10T13:21:06.975Z,9.38
2019-06-10T13:23:34.541Z,10.25
2019-06-10T13:26:07.187Z,12.28
2019-06-10T13:28:32.622Z,7.05
2019-06-10T13:31:05.914Z,8.23
2019-06-10T13:33:33.390Z,11.80
2019-06-10T13:36:04.767Z,7.22
2019-06-10T13:38:33.140Z,6.42
2019-06-10T13:41:04.118Z,10.93
2019-06-10T13:43:33.953Z,9.00
2019-06-10T13:46:07.008Z,7.00
2019-06-10T13:48:33.466Z,11.00
2019-06-10T13:51:08.275Z,5.67
2019-06-10T13:53:32.484Z,8.63
2019-06-10T13:56:18.990Z,7.95
2019-06-10T13:58:31.494Z,8.08
2019-06-10T14:00:59.940Z,7.90
2019-06-10T14:03:28.415Z,7.47
2019-06-10T14:05:59.862Z,12.60
2019-06-10T14:08:27.337Z,6.28
2019-06-10T14:10:56.104Z,8.93
2019-06-10T14:13:24.582Z,8.70
2019-06-10T14:15:54.319Z,7.22
2019-06-10T14:18:23.476Z,7.85
2019-06-10T14:23:33.134Z,7.03
2019-06-10T14:26:03.243Z,8.13
2019-06-10T14:28:40.507Z,11.45
2019-06-10T14:31:03.619Z,11.22
2019-06-10T14:33:32.999Z,10.00
2019-06-10T14:36:04.959Z,8.48
2019-06-10T14:38:32.678Z,9.28
2019-06-10T14:41:04.344Z,10.58
2019-06-10T14:43:33.276Z,8.23
2019-06-10T14:46:02.035Z,8.75
2019-06-10T14:48:33.367Z,8.70
2019-06-10T14:51:03.075Z,6.83
2019-06-10T14:53:33.450Z,6.92
2019-06-10T14:56:03.592Z,11.12
2019-06-10T14:58:31.934Z,8.50
2019-06-10T15:01:04.356Z,12.13
2019-06-10T15:03:32.800Z,9.45
2019-06-10T15:06:03.088Z,8.50
2019-06-10T15:08:32.288Z,8.38
2019-06-10T15:11:02.544Z,9.85
2019-06-10T15:13:32.736Z,9.23
2019-06-10T15:16:04.432Z,10.60
2019-06-10T15:18:33.071Z,11.40
2019-06-10T15:21:03.099Z,12.07
2019-06-10T15:23:32.535Z,8.40
2019-06-10T15:26:02.862Z,9.55
2019-06-10T15:28:31.871Z,8.20
2019-06-10T15:31:02.761Z,12.23
2019-06-10T15:33:32.705Z,9.33
2019-06-10T15:36:02.379Z,8.53
2019-06-10T15:38:32.760Z,13.22
2019-06-10T15:41:02.781Z,17.60
2019-06-10T15:43:33.065Z,8.38
2019-06-10T15:46:03.376Z,10.30
2019-06-10T15:48:32.072Z,9.85
2019-06-10T15:51:03.095Z,9.78
2019-06-10T15:53:32.811Z,12.37
2019-06-10T15:56:18.001Z,8.70
2019-06-10T15:58:32.339Z,10.90
2019-06-10T16:01:02.986Z,23.27
2019-06-10T16:03:33.120Z,10.10
2019-06-10T16:06:03.195Z,8.53
2019-06-10T16:08:32.499Z,7.85
2019-06-10T16:11:03.236Z,8.65
2019-06-10T16:13:32.389Z,10.95
2019-06-10T16:16:03.586Z,11.75
2019-06-10T16:18:32.892Z,10.45
2019-06-10T16:21:04.271Z,13.32
2019-06-10T16:23:34.074Z,15.43
2019-06-10T16:26:02.988Z,7.20
2019-06-10T16:28:32.891Z,11.18
2019-06-10T16:31:02.779Z,9.85
2019-06-10T16:33:33.461Z,12.55
2019-06-10T16:36:02.881Z,9.58
2019-06-10T16:38:32.843Z,6.50
2019-06-10T16:41:03.486Z,8.98
2019-06-10T16:43:33.499Z,10.43
2019-06-10T16:46:03.230Z,10.18
2019-06-10T16:48:33.403Z,7.58
2019-06-10T16:51:04.005Z,7.20
2019-06-10T16:53:35.591Z,5.80
2019-06-10T16:56:03.409Z,11.40
2019-06-10T16:58:33.487Z,6.10
2019-06-10T17:01:04.045Z,7.92
2019-06-10T17:03:33.843Z,7.90
2019-06-10T17:06:02.986Z,9.13
2019-06-10T17:08:33.537Z,20.00
2019-06-10T17:11:03.418Z,9.20
2019-06-10T17:13:31.951Z,11.80
2019-06-10T17:16:00.429Z,11.25
2019-06-10T17:18:30.063Z,11.43
2019-06-10T17:20:58.724Z,11.80
2019-06-10T17:23:31.445Z,11.40
2019-06-10T17:25:57.951Z,11.75
2019-06-10T17:28:29.790Z,12.82
2019-06-10T17:30:57.948Z,11.68
2019-06-10T17:33:28.228Z,12.50
2019-06-10T17:35:56.743Z,11.15
2019-06-10T17:38:25.215Z,10.72
2019-06-10T17:40:53.985Z,14.43
2019-06-10T17:43:23.324Z,13.22
2019-06-10T17:45:52.784Z,15.28
2019-06-10T17:48:23.700Z,12.03
2019-06-10T17:50:52.593Z,17.15
2019-06-10T17:53:22.269Z,14.40
2019-06-10T17:55:51.551Z,15.75
2019-06-10T17:58:33.431Z,12.58
2019-06-10T18:00:52.942Z,16.20
2019-06-10T18:03:23.133Z,18.07
2019-06-10T18:05:53.290Z,15.58
2019-06-10T18:08:22.908Z,16.67
2019-06-10T18:10:53.901Z,15.13
2019-06-10T18:13:24.157Z,15.08
2019-06-10T18:15:53.375Z,13.08
2019-06-10T18:18:22.408Z,13.30
2019-06-10T18:20:53.613Z,15.85
2019-06-10T18:23:23.125Z,13.08
2019-06-10T18:25:52.778Z,13.85
2019-06-10T18:28:22.617Z,18.45
2019-06-10T18:30:53.149Z,15.53
2019-06-10T18:33:23.022Z,13.40
2019-06-10T18:35:53.312Z,13.58
2019-06-10T18:38:22.317Z,15.18
2019-06-10T18:40:53.367Z,16.35
2019-06-10T18:43:22.983Z,16.23
2019-06-10T18:45:53.284Z,15.63
2019-06-10T18:48:23.102Z,13.53
2019-06-10T18:50:53.580Z,15.80
2019-06-10T18:53:23.725Z,14.90
2019-06-10T18:55:54.858Z,13.18
2019-06-10T18:58:22.615Z,17.40
2019-06-10T19:01:00.631Z,17.60
2019-06-10T19:03:23.373Z,15.60
2019-06-10T19:05:52.885Z,16.15
2019-06-10T19:08:22.475Z,18.27
2019-06-10T19:10:53.303Z,14.23
2019-06-10T19:13:22.512Z,17.55
2019-06-10T19:15:52.958Z,15.85
2019-06-10T19:18:23.270Z,21.50
2019-06-10T19:20:53.589Z,15.70
2019-06-10T19:23:22.869Z,19.92
2019-06-10T19:25:52.481Z,18.37
2019-06-10T19:28:22.799Z,19.48
2019-06-10T19:30:53.361Z,17.95
2019-06-10T19:33:23.495Z,17.98
2019-06-10T19:35:53.118Z,15.90
2019-06-10T19:38:23.138Z,15.30
2019-06-10T19:40:53.387Z,15.58
2019-06-10T19:43:22.188Z,14.53
2019-06-10T19:45:52.793Z,13.25
2019-06-10T19:48:20.902Z,18.80
2019-06-10T19:50:53.081Z,15.00
2019-06-10T19:53:19.472Z,18.10
2019-06-10T19:55:47.948Z,20.15
2019-06-10T19:58:16.752Z,21.35
2019-06-10T20:00:50.852Z,20.55
2019-06-10T20:03:16.276Z,20.35
2019-06-10T20:05:46.874Z,25.82
2019-06-10T20:08:15.299Z,21.17
2019-06-10T20:10:44.483Z,21.90
2019-06-10T20:13:13.456Z,23.12
2019-06-10T20:15:44.969Z,24.50
2019-06-10T20:18:12.473Z,20.75
2019-06-10T20:20:43.827Z,20.35
2019-06-10T20:23:11.211Z,20.88
2019-06-10T20:25:41.068Z,19.00
2019-06-10T20:28:09.959Z,22.60
2019-06-10T20:30:38.780Z,21.97
2019-06-10T20:33:07.275Z,21.73
2019-06-10T20:35:37.411Z,19.70
2019-06-10T20:38:06.050Z,19.05
2019-06-10T20:40:35.469Z,23.55
2019-06-10T20:43:04.344Z,22.93
2019-06-10T20:45:33.595Z,20.92
2019-06-10T20:48:02.918Z,20.65
2019-06-10T20:50:32.375Z,19.17
2019-06-10T20:53:11.994Z,20.23
2019-06-10T20:55:40.400Z,16.97
2019-06-10T20:58:04.298Z,16.70
2019-06-10T21:00:45.627Z,15.10
2019-06-10T21:03:08.386Z,22.87
2019-06-10T21:05:37.011Z,15.72
2019-06-10T21:08:05.900Z,14.43
2019-06-10T21:10:37.129Z,20.85
2019-06-10T21:13:07.008Z,23.55
2019-06-10T21:15:36.511Z,22.52
2019-06-10T21:18:05.807Z,24.77
2019-06-10T21:20:34.353Z,22.80
2019-06-10T21:23:03.229Z,19.65
2019-06-10T21:25:32.652Z,20.25
2019-06-10T21:28:03.105Z,18.52
2019-06-10T21:30:40.698Z,25.90
2019-06-10T21:33:03.530Z,28.50
2019-06-10T21:35:33.611Z,22.48
2019-06-10T21:38:02.069Z,28.73
2019-06-10T21:40:32.832Z,24.12
2019-06-10T21:43:02.984Z,27.10
2019-06-10T21:45:32.647Z,21.95
2019-06-10T21:48:02.223Z,22.25
2019-06-10T21:50:33.254Z,22.93
2019-06-10T21:53:03.079Z,23.62
2019-06-10T21:55:33.180Z,20.27
2019-06-10T21:58:03.672Z,19.52
2019-06-10T22:00:52.096Z,20.40
2019-06-10T22:03:07.392Z,22.73
2019-06-10T22:05:35.928Z,29.37
2019-06-10T22:08:04.546Z,24.55
2019-06-10T22:10:33.577Z,24.85
2019-06-10T22:13:03.153Z,22.17
2019-06-10T22:15:33.307Z,24.67
2019-06-10T22:18:02.436Z,31.15
2019-06-10T22:20:32.436Z,28.25
2019-06-10T22:23:02.587Z,30.48
2019-06-10T22:25:32.826Z,28.23
2019-06-10T22:28:02.680Z,22.65
2019-06-10T22:30:32.219Z,24.55
2019-06-10T22:33:03.021Z,21.95
2019-06-10T22:35:31.008Z,19.82
2019-06-10T22:37:59.558Z,21.95
2019-06-10T22:40:28.086Z,20.05
2019-06-10T22:42:56.829Z,20.32
2019-06-10T22:45:25.363Z,26.30
2019-06-10T22:47:55.405Z,24.00
2019-06-10T22:50:24.350Z,21.25
2019-06-10T22:52:54.582Z,29.42
2019-06-10T22:55:23.009Z,30.00
2019-06-10T22:57:54.722Z,33.15
2019-06-10T23:00:22.477Z,34.20
2019-06-10T23:02:54.273Z,30.27
2019-06-10T23:05:23.320Z,32.95
2019-06-10T23:07:54.170Z,33.53
2019-06-10T23:10:22.832Z,34.63
2019-06-10T23:12:54.752Z,26.70
2019-06-10T23:15:23.492Z,23.85
2019-06-10T23:17:55.293Z,23.95
2019-06-10T23:20:22.587Z,18.15
2019-06-10T23:22:54.423Z,19.52
2019-06-10T23:25:22.081Z,19.25
2019-06-10T23:27:53.233Z,19.55
2019-06-10T23:30:22.442Z,16.23
2019-06-10T23:32:54.261Z,19.32
2019-06-10T23:35:23.116Z,21.10
2019-06-10T23:37:55.057Z,26.70
2019-06-10T23:40:23.441Z,22.77
2019-06-10T23:42:53.014Z,19.52
2019-06-10T23:45:22.391Z,22.02
2019-06-10T23:47:52.865Z,19.75
2019-06-10T23:50:22.513Z,18.40
2019-06-10T23:52:54.183Z,19.82
2019-06-10T23:55:22.716Z,23.07
2019-06-10T23:57:52.987Z,21.77
